Terminal Aerodrome Forecast
Issued by NWS

Home | Current Version | Previous Version | Text Only | Print | Product List | Glossary Off
Versions: 1 2 3 4 5 6 7 8 9 10 11 12 13 14 15 16 17 18 19 20

350
FTUS43 KMPX 191249 AAA
TAFAXN
TAF AMD
KAXN 191249Z 1913/2012 02014KT 6SM BR VCSH SCT025 OVC050
      TEMPO 1913/1917 2SM -SN BR OVC025
     FM191700 03017G25KT 6SM -SN OVC030
     FM192200 03013G21KT 2SM -SN OVC020
     FM200300 04013G20KT 4SM -SN OVC015
     FM200800 02010KT 2SM -SN OVC020=

USA.gov is the U.S. government's official web portal to all federal, state and local government web resources and services.